sensor_id;sensor_type;location;lat;lon;timestamp;P1;durP1;ratioP1;P2;durP2;ratioP2
3971;SDS011;2000;47.572;14.202;2023-03-23T00:01:02;5.03;;;1.03;;
3971;SDS011;2000;47.572;14.202;2023-03-23T00:03:29;2.97;;;1.43;;
3971;SDS011;2000;47.572;14.202;2023-03-23T00:05:57;2.20;;;1.47;;
3971;SDS011;2000;47.572;14.202;2023-03-23T00:08:39;3.00;;;1.30;;
3971;SDS011;2000;47.572;14.202;2023-03-23T00:11:14;1.43;;;1.30;;
3971;SDS011;2000;47.572;14.202;2023-03-23T00:13:42;4.13;;;1.40;;
3971;SDS011;2000;47.572;14.202;2023-03-23T00:16:08;7.40;;;1.23;;
3971;SDS011;2000;47.572;14.202;2023-03-23T00:18:43;3.10;;;1.30;;
3971;SDS011;2000;47.572;14.202;2023-03-23T00:21:12;8.73;;;1.30;;
3971;SDS011;2000;47.572;14.202;2023-03-23T00:23:39;1.50;;;1.30;;
3971;SDS011;2000;47.572;14.202;2023-03-23T00:26:05;3.77;;;1.40;;
3971;SDS011;2000;47.572;14.202;2023-03-23T00:28:31;1.93;;;1.63;;
3971;SDS011;2000;47.572;14.202;2023-03-23T00:30:58;1.60;;;1.00;;
3971;SDS011;2000;47.572;14.202;2023-03-23T00:33:30;2.50;;;1.33;;
3971;SDS011;2000;47.572;14.202;2023-03-23T00:36:12;8.67;;;1.20;;
3971;SDS011;2000;47.572;14.202;2023-03-23T00:38:38;3.10;;;1.30;;
3971;SDS011;2000;47.572;14.202;2023-03-23T00:41:05;2.10;;;1.33;;
3971;SDS011;2000;47.572;14.202;2023-03-23T00:43:31;1.90;;;1.47;;
3971;SDS011;2000;47.572;14.202;2023-03-23T00:46:01;6.60;;;1.30;;
3971;SDS011;2000;47.572;14.202;2023-03-23T00:48:27;8.70;;;1.63;;
3971;SDS011;2000;47.572;14.202;2023-03-23T00:50:54;2.97;;;1.67;;
3971;SDS011;2000;47.572;14.202;2023-03-23T00:53:20;3.23;;;1.60;;
3971;SDS011;2000;47.572;14.202;2023-03-23T00:55:46;6.80;;;2.10;;
3971;SDS011;2000;47.572;14.202;2023-03-23T00:58:13;7.90;;;1.90;;
3971;SDS011;2000;47.572;14.202;2023-03-23T01:00:39;3.97;;;2.77;;
3971;SDS011;2000;47.572;14.202;2023-03-23T01:03:06;16.53;;;5.50;;
3971;SDS011;2000;47.572;14.202;2023-03-23T01:05:36;14.10;;;6.33;;
3971;SDS011;2000;47.572;14.202;2023-03-23T01:08:02;15.10;;;7.00;;
3971;SDS011;2000;47.572;14.202;2023-03-23T01:10:28;12.67;;;4.80;;
3971;SDS011;2000;47.572;14.202;2023-03-23T01:12:58;17.73;;;4.93;;
3971;SDS011;2000;47.572;14.202;2023-03-23T01:15:26;12.33;;;3.93;;
3971;SDS011;2000;47.572;14.202;2023-03-23T01:17:53;12.23;;;4.53;;
3971;SDS011;2000;47.572;14.202;2023-03-23T01:20:18;13.87;;;2.87;;
3971;SDS011;2000;47.572;14.202;2023-03-23T01:22:44;6.20;;;2.07;;
3971;SDS011;2000;47.572;14.202;2023-03-23T01:25:10;7.33;;;2.37;;
3971;SDS011;2000;47.572;14.202;2023-03-23T01:27:37;10.70;;;2.10;;
3971;SDS011;2000;47.572;14.202;2023-03-23T01:30:03;8.30;;;2.60;;
3971;SDS011;2000;47.572;14.202;2023-03-23T01:32:31;5.70;;;2.90;;
3971;SDS011;2000;47.572;14.202;2023-03-23T01:34:56;8.07;;;2.73;;
3971;SDS011;2000;47.572;14.202;2023-03-23T01:37:22;5.33;;;2.70;;
3971;SDS011;2000;47.572;14.202;2023-03-23T01:39:54;8.00;;;2.33;;
3971;SDS011;2000;47.572;14.202;2023-03-23T01:42:21;6.57;;;2.60;;
3971;SDS011;2000;47.572;14.202;2023-03-23T01:47:14;4.43;;;1.97;;
3971;SDS011;2000;47.572;14.202;2023-03-23T01:49:42;7.93;;;2.40;;
3971;SDS011;2000;47.572;14.202;2023-03-23T01:52:20;4.40;;;1.97;;
3971;SDS011;2000;47.572;14.202;2023-03-23T01:54:49;6.13;;;2.60;;
3971;SDS011;2000;47.572;14.202;2023-03-23T01:57:16;3.03;;;2.13;;
3971;SDS011;2000;47.572;14.202;2023-03-23T01:59:43;6.13;;;1.93;;
3971;SDS011;2000;47.572;14.202;2023-03-23T02:02:12;1.73;;;1.60;;
3971;SDS011;2000;47.572;14.202;2023-03-23T02:04:38;6.40;;;2.00;;
3971;SDS011;2000;47.572;14.202;2023-03-23T02:07:04;7.37;;;2.37;;
3971;SDS011;2000;47.572;14.202;2023-03-23T02:09:29;2.20;;;1.60;;
3971;SDS011;2000;47.572;14.202;2023-03-23T02:11:55;8.37;;;2.20;;
3971;SDS011;2000;47.572;14.202;2023-03-23T02:14:22;2.30;;;1.93;;
3971;SDS011;2000;47.572;14.202;2023-03-23T02:16:52;7.03;;;1.57;;
3971;SDS011;2000;47.572;14.202;2023-03-23T02:35:44;20.67;;;2.33;;
3971;SDS011;2000;47.572;14.202;2023-03-23T02:38:21;2.80;;;2.07;;
3971;SDS011;2000;47.572;14.202;2023-03-23T02:40:51;4.70;;;1.50;;
3971;SDS011;2000;47.572;14.202;2023-03-23T02:43:20;3.90;;;1.67;;
3971;SDS011;2000;47.572;14.202;2023-03-23T02:45:47;4.80;;;1.77;;
3971;SDS011;2000;47.572;14.202;2023-03-23T02:48:14;5.53;;;2.13;;
3971;SDS011;2000;47.572;14.202;2023-03-23T02:50:42;4.63;;;2.30;;
3971;SDS011;2000;47.572;14.202;2023-03-23T02:53:10;5.53;;;1.70;;
3971;SDS011;2000;47.572;14.202;2023-03-23T02:55:38;2.50;;;1.50;;
3971;SDS011;2000;47.572;14.202;2023-03-23T02:58:07;4.60;;;2.20;;
3971;SDS011;2000;47.572;14.202;2023-03-23T03:00:37;2.70;;;2.00;;
3971;SDS011;2000;47.572;14.202;2023-03-23T03:03:03;4.67;;;2.37;;
3971;SDS011;2000;47.572;14.202;2023-03-23T03:05:44;10.23;;;1.60;;
3971;SDS011;2000;47.572;14.202;2023-03-23T03:11:03;2.63;;;2.07;;
3971;SDS011;2000;47.572;14.202;2023-03-23T03:13:37;2.70;;;1.80;;
3971;SDS011;2000;47.572;14.202;2023-03-23T03:16:25;5.93;;;1.50;;
3971;SDS011;2000;47.572;14.202;2023-03-23T03:19:07;3.07;;;1.87;;
3971;SDS011;2000;47.572;14.202;2023-03-23T03:21:38;6.10;;;1.90;;
3971;SDS011;2000;47.572;14.202;2023-03-23T03:24:07;7.37;;;2.33;;
3971;SDS011;2000;47.572;14.202;2023-03-23T03:26:36;2.90;;;1.60;;
3971;SDS011;2000;47.572;14.202;2023-03-23T03:29:05;2.93;;;2.20;;
3971;SDS011;2000;47.572;14.202;2023-03-23T03:31:34;3.47;;;2.47;;
3971;SDS011;2000;47.572;14.202;2023-03-23T03:34:03;3.93;;;1.70;;
3971;SDS011;2000;47.572;14.202;2023-03-23T03:36:29;4.33;;;2.20;;
3971;SDS011;2000;47.572;14.202;2023-03-23T03:39:09;5.20;;;2.30;;
3971;SDS011;2000;47.572;14.202;2023-03-23T03:41:35;3.70;;;2.10;;
3971;SDS011;2000;47.572;14.202;2023-03-23T03:44:01;4.87;;;1.67;;
3971;SDS011;2000;47.572;14.202;2023-03-23T03:46:27;1.93;;;1.73;;
3971;SDS011;2000;47.572;14.202;2023-03-23T03:48:55;9.13;;;2.70;;
3971;SDS011;2000;47.572;14.202;2023-03-23T03:51:22;5.80;;;2.80;;
3971;SDS011;2000;47.572;14.202;2023-03-23T03:53:48;2.73;;;2.03;;
3971;SDS011;2000;47.572;14.202;2023-03-23T03:56:13;13.00;;;2.10;;
3971;SDS011;2000;47.572;14.202;2023-03-23T03:58:39;11.97;;;2.50;;
3971;SDS011;2000;47.572;14.202;2023-03-23T04:01:08;3.20;;;2.23;;
3971;SDS011;2000;47.572;14.202;2023-03-23T04:03:35;4.57;;;3.00;;
3971;SDS011;2000;47.572;14.202;2023-03-23T04:06:02;9.07;;;2.80;;
3971;SDS011;2000;47.572;14.202;2023-03-23T04:08:28;7.03;;;2.17;;
3971;SDS011;2000;47.572;14.202;2023-03-23T04:10:54;5.03;;;1.90;;
3971;SDS011;2000;47.572;14.202;2023-03-23T04:13:20;13.43;;;2.50;;
3971;SDS011;2000;47.572;14.202;2023-03-23T04:15:46;7.73;;;2.17;;
3971;SDS011;2000;47.572;14.202;2023-03-23T04:18:12;6.63;;;2.03;;
3971;SDS011;2000;47.572;14.202;2023-03-23T04:20:43;8.50;;;2.50;;
3971;SDS011;2000;47.572;14.202;2023-03-23T04:23:20;12.53;;;3.43;;
3971;SDS011;2000;47.572;14.202;2023-03-23T04:25:47;13.07;;;2.30;;
3971;SDS011;2000;47.572;14.202;2023-03-23T04:28:17;11.20;;;2.47;;
3971;SDS011;2000;47.572;14.202;2023-03-23T04:30:44;2.20;;;1.80;;
3971;SDS011;2000;47.572;14.202;2023-03-23T04:33:10;7.27;;;3.30;;
3971;SDS011;2000;47.572;14.202;2023-03-23T04:35:40;9.63;;;2.97;;
3971;SDS011;2000;47.572;14.202;2023-03-23T04:38:07;7.80;;;2.53;;
3971;SDS011;2000;47.572;14.202;2023-03-23T04:40:37;9.67;;;2.80;;
3971;SDS011;2000;47.572;14.202;2023-03-23T04:43:04;8.03;;;2.70;;
3971;SDS011;2000;47.572;14.202;2023-03-23T04:45:31;3.13;;;1.67;;
3971;SDS011;2000;47.572;14.202;2023-03-23T04:47:57;17.53;;;3.63;;
3971;SDS011;2000;47.572;14.202;2023-03-23T04:50:24;11.73;;;2.73;;
3971;SDS011;2000;47.572;14.202;2023-03-23T04:52:58;10.57;;;3.60;;
3971;SDS011;2000;47.572;14.202;2023-03-23T04:55:29;9.47;;;2.67;;
3971;SDS011;2000;47.572;14.202;2023-03-23T04:58:11;8.20;;;3.00;;
3971;SDS011;2000;47.572;14.202;2023-03-23T05:00:39;7.33;;;3.10;;
3971;SDS011;2000;47.572;14.202;2023-03-23T05:03:13;5.63;;;3.23;;
3971;SDS011;2000;47.572;14.202;2023-03-23T05:05:46;15.03;;;3.03;;
3971;SDS011;2000;47.572;14.202;2023-03-23T05:08:18;13.63;;;3.63;;
3971;SDS011;2000;47.572;14.202;2023-03-23T05:10:55;5.97;;;2.70;;
3971;SDS011;2000;47.572;14.202;2023-03-23T05:13:22;21.80;;;3.90;;
3971;SDS011;2000;47.572;14.202;2023-03-23T05:15:47;5.33;;;3.37;;
3971;SDS011;2000;47.572;14.202;2023-03-23T05:18:13;6.37;;;3.00;;
3971;SDS011;2000;47.572;14.202;2023-03-23T05:20:40;5.80;;;3.10;;
3971;SDS011;2000;47.572;14.202;2023-03-23T05:23:07;9.60;;;3.93;;
3971;SDS011;2000;47.572;14.202;2023-03-23T05:25:33;8.47;;;4.10;;
3971;SDS011;2000;47.572;14.202;2023-03-23T05:28:04;7.77;;;4.20;;
3971;SDS011;2000;47.572;14.202;2023-03-23T05:30:30;8.57;;;3.00;;
3971;SDS011;2000;47.572;14.202;2023-03-23T05:32:55;6.40;;;3.30;;
3971;SDS011;2000;47.572;14.202;2023-03-23T05:35:21;7.40;;;3.33;;
3971;SDS011;2000;47.572;14.202;2023-03-23T05:37:47;9.10;;;3.70;;
3971;SDS011;2000;47.572;14.202;2023-03-23T05:40:13;5.00;;;3.20;;
3971;SDS011;2000;47.572;14.202;2023-03-23T05:42:39;6.80;;;3.17;;
3971;SDS011;2000;47.572;14.202;2023-03-23T05:45:07;6.30;;;2.50;;
3971;SDS011;2000;47.572;14.202;2023-03-23T05:47:34;6.53;;;2.90;;
3971;SDS011;2000;47.572;14.202;2023-03-23T05:49:59;7.70;;;2.20;;
3971;SDS011;2000;47.572;14.202;2023-03-23T05:52:25;6.80;;;3.90;;
3971;SDS011;2000;47.572;14.202;2023-03-23T05:54:51;11.97;;;4.03;;
3971;SDS011;2000;47.572;14.202;2023-03-23T05:57:17;10.80;;;4.80;;
3971;SDS011;2000;47.572;14.202;2023-03-23T05:59:43;5.50;;;4.07;;
3971;SDS011;2000;47.572;14.202;2023-03-23T06:02:10;14.37;;;4.33;;
3971;SDS011;2000;47.572;14.202;2023-03-23T06:04:36;4.73;;;3.60;;
3971;SDS011;2000;47.572;14.202;2023-03-23T06:07:03;9.20;;;4.53;;
3971;SDS011;2000;47.572;14.202;2023-03-23T06:09:29;12.50;;;3.93;;
3971;SDS011;2000;47.572;14.202;2023-03-23T06:11:55;12.23;;;4.90;;
3971;SDS011;2000;47.572;14.202;2023-03-23T06:14:21;8.37;;;4.47;;
3971;SDS011;2000;47.572;14.202;2023-03-23T06:16:47;6.90;;;4.20;;
3971;SDS011;2000;47.572;14.202;2023-03-23T06:19:13;10.80;;;4.97;;
3971;SDS011;2000;47.572;14.202;2023-03-23T06:21:40;14.53;;;5.27;;
3971;SDS011;2000;47.572;14.202;2023-03-23T06:24:08;19.23;;;5.80;;
3971;SDS011;2000;47.572;14.202;2023-03-23T06:26:35;10.97;;;5.57;;
3971;SDS011;2000;47.572;14.202;2023-03-23T06:29:03;23.40;;;5.10;;
3971;SDS011;2000;47.572;14.202;2023-03-23T06:31:36;10.10;;;5.50;;
3971;SDS011;2000;47.572;14.202;2023-03-23T06:34:04;15.80;;;4.57;;
3971;SDS011;2000;47.572;14.202;2023-03-23T06:36:29;9.60;;;4.10;;
3971;SDS011;2000;47.572;14.202;2023-03-23T06:38:55;7.83;;;4.67;;
3971;SDS011;2000;47.572;14.202;2023-03-23T06:41:21;8.97;;;4.70;;
3971;SDS011;2000;47.572;14.202;2023-03-23T06:43:47;18.03;;;4.83;;
3971;SDS011;2000;47.572;14.202;2023-03-23T06:46:12;7.07;;;4.37;;
3971;SDS011;2000;47.572;14.202;2023-03-23T06:48:38;8.93;;;5.10;;
3971;SDS011;2000;47.572;14.202;2023-03-23T06:51:04;8.80;;;5.20;;
3971;SDS011;2000;47.572;14.202;2023-03-23T06:53:30;10.40;;;5.27;;
3971;SDS011;2000;47.572;14.202;2023-03-23T06:55:56;20.80;;;5.90;;
3971;SDS011;2000;47.572;14.202;2023-03-23T06:58:22;8.73;;;5.23;;
3971;SDS011;2000;47.572;14.202;2023-03-23T07:00:52;11.37;;;5.63;;
3971;SDS011;2000;47.572;14.202;2023-03-23T07:03:21;12.00;;;5.80;;
3971;SDS011;2000;47.572;14.202;2023-03-23T07:05:47;12.27;;;6.13;;
3971;SDS011;2000;47.572;14.202;2023-03-23T07:08:13;9.67;;;5.07;;
3971;SDS011;2000;47.572;14.202;2023-03-23T07:10:39;21.83;;;6.70;;
3971;SDS011;2000;47.572;14.202;2023-03-23T07:13:05;18.07;;;6.17;;
3971;SDS011;2000;47.572;14.202;2023-03-23T07:15:31;11.80;;;5.30;;
3971;SDS011;2000;47.572;14.202;2023-03-23T07:17:56;11.80;;;5.73;;
3971;SDS011;2000;47.572;14.202;2023-03-23T07:20:22;8.70;;;4.83;;
3971;SDS011;2000;47.572;14.202;2023-03-23T07:22:48;10.90;;;4.30;;
3971;SDS011;2000;47.572;14.202;2023-03-23T07:25:14;18.63;;;4.50;;
3971;SDS011;2000;47.572;14.202;2023-03-23T07:27:41;7.30;;;5.00;;
3971;SDS011;2000;47.572;14.202;2023-03-23T07:30:06;11.70;;;5.67;;
3971;SDS011;2000;47.572;14.202;2023-03-23T07:32:33;12.00;;;4.43;;
3971;SDS011;2000;47.572;14.202;2023-03-23T07:34:58;8.80;;;4.33;;
3971;SDS011;2000;47.572;14.202;2023-03-23T07:37:24;17.50;;;5.30;;
3971;SDS011;2000;47.572;14.202;2023-03-23T07:39:50;12.83;;;4.47;;
3971;SDS011;2000;47.572;14.202;2023-03-23T07:42:16;12.73;;;5.33;;
3971;SDS011;2000;47.572;14.202;2023-03-23T07:44:41;13.60;;;4.93;;
3971;SDS011;2000;47.572;14.202;2023-03-23T07:47:07;18.53;;;5.27;;
3971;SDS011;2000;47.572;14.202;2023-03-23T07:49:33;11.10;;;5.50;;
3971;SDS011;2000;47.572;14.202;2023-03-23T07:51:59;14.83;;;6.13;;
3971;SDS011;2000;47.572;14.202;2023-03-23T07:54:27;24.53;;;7.40;;
3971;SDS011;2000;47.572;14.202;2023-03-23T07:56:52;24.13;;;7.07;;
3971;SDS011;2000;47.572;14.202;2023-03-23T07:59:18;20.57;;;5.20;;
3971;SDS011;2000;47.572;14.202;2023-03-23T08:01:43;12.83;;;4.60;;
3971;SDS011;2000;47.572;14.202;2023-03-23T08:04:09;27.13;;;5.40;;
3971;SDS011;2000;47.572;14.202;2023-03-23T08:06:35;21.63;;;4.97;;
3971;SDS011;2000;47.572;14.202;2023-03-23T08:09:00;13.33;;;4.50;;
3971;SDS011;2000;47.572;14.202;2023-03-23T08:11:31;18.37;;;5.10;;
3971;SDS011;2000;47.572;14.202;2023-03-23T08:13:58;7.60;;;4.53;;
3971;SDS011;2000;47.572;14.202;2023-03-23T08:16:23;7.77;;;3.60;;
3971;SDS011;2000;47.572;14.202;2023-03-23T08:18:50;15.03;;;3.53;;
3971;SDS011;2000;47.572;14.202;2023-03-23T08:21:17;8.93;;;3.20;;
3971;SDS011;2000;47.572;14.202;2023-03-23T08:23:42;5.43;;;3.57;;
3971;SDS011;2000;47.572;14.202;2023-03-23T08:26:09;8.03;;;3.83;;
3971;SDS011;2000;47.572;14.202;2023-03-23T08:28:35;5.23;;;3.40;;
3971;SDS011;2000;47.572;14.202;2023-03-23T08:31:11;6.87;;;3.77;;
3971;SDS011;2000;47.572;14.202;2023-03-23T08:33:37;11.10;;;3.10;;
3971;SDS011;2000;47.572;14.202;2023-03-23T08:36:04;6.37;;;2.63;;
3971;SDS011;2000;47.572;14.202;2023-03-23T08:38:30;5.13;;;2.50;;
3971;SDS011;2000;47.572;14.202;2023-03-23T08:41:03;3.70;;;2.97;;
3971;SDS011;2000;47.572;14.202;2023-03-23T08:43:30;6.23;;;3.10;;
3971;SDS011;2000;47.572;14.202;2023-03-23T08:45:57;4.10;;;3.50;;
3971;SDS011;2000;47.572;14.202;2023-03-23T08:48:24;5.40;;;2.73;;
3971;SDS011;2000;47.572;14.202;2023-03-23T08:50:49;6.10;;;3.30;;
3971;SDS011;2000;47.572;14.202;2023-03-23T08:53:17;5.53;;;3.13;;
3971;SDS011;2000;47.572;14.202;2023-03-23T08:55:43;8.70;;;2.83;;
3971;SDS011;2000;47.572;14.202;2023-03-23T08:58:09;6.20;;;3.20;;
3971;SDS011;2000;47.572;14.202;2023-03-23T09:00:35;5.63;;;3.10;;
3971;SDS011;2000;47.572;14.202;2023-03-23T09:03:01;3.80;;;3.07;;
3971;SDS011;2000;47.572;14.202;2023-03-23T09:05:27;13.97;;;3.57;;
3971;SDS011;2000;47.572;14.202;2023-03-23T09:07:55;4.77;;;3.20;;
3971;SDS011;2000;47.572;14.202;2023-03-23T09:10:24;3.43;;;2.73;;
3971;SDS011;2000;47.572;14.202;2023-03-23T09:12:52;6.10;;;3.13;;
3971;SDS011;2000;47.572;14.202;2023-03-23T09:15:18;3.87;;;3.00;;
3971;SDS011;2000;47.572;14.202;2023-03-23T09:17:46;6.60;;;3.13;;
3971;SDS011;2000;47.572;14.202;2023-03-23T09:20:15;6.33;;;3.30;;
3971;SDS011;2000;47.572;14.202;2023-03-23T09:22:44;7.43;;;2.43;;
3971;SDS011;2000;47.572;14.202;2023-03-23T09:25:12;3.40;;;3.10;;
3971;SDS011;2000;47.572;14.202;2023-03-23T09:27:39;4.90;;;2.83;;
3971;SDS011;2000;47.572;14.202;2023-03-23T09:30:06;8.70;;;3.40;;
3971;SDS011;2000;47.572;14.202;2023-03-23T09:32:35;5.50;;;2.90;;
3971;SDS011;2000;47.572;14.202;2023-03-23T09:35:02;12.00;;;4.10;;
3971;SDS011;2000;47.572;14.202;2023-03-23T09:37:31;14.13;;;3.00;;
3971;SDS011;2000;47.572;14.202;2023-03-23T09:39:58;9.20;;;2.70;;
3971;SDS011;2000;47.572;14.202;2023-03-23T09:45:05;7.27;;;4.30;;
3971;SDS011;2000;47.572;14.202;2023-03-23T09:47:52;6.67;;;3.27;;
3971;SDS011;2000;47.572;14.202;2023-03-23T09:50:21;7.07;;;3.77;;
3971;SDS011;2000;47.572;14.202;2023-03-23T09:52:55;10.90;;;4.17;;
3971;SDS011;2000;47.572;14.202;2023-03-23T09:55:23;15.73;;;4.27;;
3971;SDS011;2000;47.572;14.202;2023-03-23T10:00:37;10.00;;;4.20;;
3971;SDS011;2000;47.572;14.202;2023-03-23T10:03:09;22.67;;;3.80;;
3971;SDS011;2000;47.572;14.202;2023-03-23T10:05:39;19.03;;;4.30;;
3971;SDS011;2000;47.572;14.202;2023-03-23T10:08:13;17.23;;;5.20;;
3971;SDS011;2000;47.572;14.202;2023-03-23T10:16:30;6.20;;;3.60;;
3971;SDS011;2000;47.572;14.202;2023-03-23T10:18:59;12.70;;;3.60;;
3971;SDS011;2000;47.572;14.202;2023-03-23T10:21:50;12.00;;;4.40;;
3971;SDS011;2000;47.572;14.202;2023-03-23T10:24:19;11.67;;;3.80;;
3971;SDS011;2000;47.572;14.202;2023-03-23T10:29:14;13.33;;;4.00;;
3971;SDS011;2000;47.572;14.202;2023-03-23T10:32:16;13.33;;;3.70;;
3971;SDS011;2000;47.572;14.202;2023-03-23T10:34:41;13.07;;;4.27;;
3971;SDS011;2000;47.572;14.202;2023-03-23T10:37:32;4.83;;;3.00;;
3971;SDS011;2000;47.572;14.202;2023-03-23T10:40:01;7.60;;;3.13;;
3971;SDS011;2000;47.572;14.202;2023-03-23T10:42:35;4.10;;;3.13;;
3971;SDS011;2000;47.572;14.202;2023-03-23T10:45:11;8.77;;;2.97;;
3971;SDS011;2000;47.572;14.202;2023-03-23T10:47:53;9.93;;;3.23;;
3971;SDS011;2000;47.572;14.202;2023-03-23T10:50:27;5.20;;;3.03;;
3971;SDS011;2000;47.572;14.202;2023-03-23T10:52:56;6.77;;;2.70;;
3971;SDS011;2000;47.572;14.202;2023-03-23T10:55:23;5.47;;;3.00;;
3971;SDS011;2000;47.572;14.202;2023-03-23T10:58:22;4.00;;;3.70;;
3971;SDS011;2000;47.572;14.202;2023-03-23T11:01:09;6.70;;;4.23;;
3971;SDS011;2000;47.572;14.202;2023-03-23T11:03:44;6.27;;;2.90;;
3971;SDS011;2000;47.572;14.202;2023-03-23T11:06:23;14.13;;;3.50;;
3971;SDS011;2000;47.572;14.202;2023-03-23T11:08:53;15.50;;;8.00;;
3971;SDS011;2000;47.572;14.202;2023-03-23T11:13:59;10.73;;;3.70;;
3971;SDS011;2000;47.572;14.202;2023-03-23T11:16:31;15.47;;;4.20;;
3971;SDS011;2000;47.572;14.202;2023-03-23T11:18:59;6.03;;;3.73;;
3971;SDS011;2000;47.572;14.202;2023-03-23T11:21:26;14.03;;;4.47;;
3971;SDS011;2000;47.572;14.202;2023-03-23T11:23:58;23.80;;;4.40;;
3971;SDS011;2000;47.572;14.202;2023-03-23T11:26:26;10.07;;;5.80;;
3971;SDS011;2000;47.572;14.202;2023-03-23T11:28:56;11.47;;;5.90;;
3971;SDS011;2000;47.572;14.202;2023-03-23T11:31:30;13.77;;;3.73;;
3971;SDS011;2000;47.572;14.202;2023-03-23T11:34:13;7.23;;;3.57;;
3971;SDS011;2000;47.572;14.202;2023-03-23T11:36:43;14.07;;;4.30;;
3971;SDS011;2000;47.572;14.202;2023-03-23T11:41:53;13.63;;;5.87;;
3971;SDS011;2000;47.572;14.202;2023-03-23T11:44:20;12.60;;;6.53;;
3971;SDS011;2000;47.572;14.202;2023-03-23T11:52:21;8.90;;;4.70;;
3971;SDS011;2000;47.572;14.202;2023-03-23T11:55:00;10.43;;;4.10;;
3971;SDS011;2000;47.572;14.202;2023-03-23T11:57:38;5.67;;;3.80;;
3971;SDS011;2000;47.572;14.202;2023-03-23T12:00:11;4.33;;;3.87;;
3971;SDS011;2000;47.572;14.202;2023-03-23T12:13:26;5.13;;;3.80;;
3971;SDS011;2000;47.572;14.202;2023-03-23T12:21:24;5.70;;;2.80;;
3971;SDS011;2000;47.572;14.202;2023-03-23T12:32:29;4.73;;;2.93;;
3971;SDS011;2000;47.572;14.202;2023-03-23T12:49:32;4.63;;;3.10;;
3971;SDS011;2000;47.572;14.202;2023-03-23T12:54:11;2.80;;;2.47;;
3971;SDS011;2000;47.572;14.202;2023-03-23T12:56:46;7.83;;;2.50;;
3971;SDS011;2000;47.572;14.202;2023-03-23T13:01:43;5.20;;;2.10;;
3971;SDS011;2000;47.572;14.202;2023-03-23T13:04:13;2.70;;;2.20;;
3971;SDS011;2000;47.572;14.202;2023-03-23T13:06:43;3.00;;;1.70;;
3971;SDS011;2000;47.572;14.202;2023-03-23T13:09:24;3.80;;;1.83;;
3971;SDS011;2000;47.572;14.202;2023-03-23T13:11:58;4.60;;;2.90;;
3971;SDS011;2000;47.572;14.202;2023-03-23T13:14:34;2.57;;;1.90;;
3971;SDS011;2000;47.572;14.202;2023-03-23T13:19:59;2.47;;;2.10;;
3971;SDS011;2000;47.572;14.202;2023-03-23T13:23:04;2.10;;;1.90;;
3971;SDS011;2000;47.572;14.202;2023-03-23T13:28:28;3.17;;;1.80;;
3971;SDS011;2000;47.572;14.202;2023-03-23T13:31:30;7.30;;;2.13;;
3971;SDS011;2000;47.572;14.202;2023-03-23T13:34:00;2.80;;;2.30;;
3971;SDS011;2000;47.572;14.202;2023-03-23T13:36:28;3.17;;;2.00;;
3971;SDS011;2000;47.572;14.202;2023-03-23T13:38:56;6.37;;;3.03;;
3971;SDS011;2000;47.572;14.202;2023-03-23T13:41:24;1.77;;;1.60;;
3971;SDS011;2000;47.572;14.202;2023-03-23T13:43:51;1.77;;;1.50;;
3971;SDS011;2000;47.572;14.202;2023-03-23T13:49:02;8.00;;;1.70;;
3971;SDS011;2000;47.572;14.202;2023-03-23T14:01:56;3.50;;;2.13;;
3971;SDS011;2000;47.572;14.202;2023-03-23T14:04:42;4.47;;;1.30;;
3971;SDS011;2000;47.572;14.202;2023-03-23T14:07:10;1.93;;;1.63;;
3971;SDS011;2000;47.572;14.202;2023-03-23T14:09:40;5.83;;;2.00;;
3971;SDS011;2000;47.572;14.202;2023-03-23T14:12:21;3.23;;;1.63;;
3971;SDS011;2000;47.572;14.202;2023-03-23T14:14:54;1.50;;;1.40;;
3971;SDS011;2000;47.572;14.202;2023-03-23T14:17:30;5.37;;;1.93;;
3971;SDS011;2000;47.572;14.202;2023-03-23T14:20:05;1.90;;;1.80;;
3971;SDS011;2000;47.572;14.202;2023-03-23T14:22:37;1.60;;;1.50;;
3971;SDS011;2000;47.572;14.202;2023-03-23T14:25:11;4.33;;;2.03;;
3971;SDS011;2000;47.572;14.202;2023-03-23T14:27:40;10.33;;;1.47;;
3971;SDS011;2000;47.572;14.202;2023-03-23T14:32:40;2.47;;;1.80;;
3971;SDS011;2000;47.572;14.202;2023-03-23T14:35:40;1.57;;;1.47;;
3971;SDS011;2000;47.572;14.202;2023-03-23T14:38:00;4.10;;;1.73;;
3971;SDS011;2000;47.572;14.202;2023-03-23T14:40:26;2.40;;;1.70;;
3971;SDS011;2000;47.572;14.202;2023-03-23T14:42:53;5.53;;;1.63;;
3971;SDS011;2000;47.572;14.202;2023-03-23T14:45:20;1.63;;;1.20;;
3971;SDS011;2000;47.572;14.202;2023-03-23T14:47:48;1.83;;;1.73;;
3971;SDS011;2000;47.572;14.202;2023-03-23T14:50:27;1.57;;;1.40;;
3971;SDS011;2000;47.572;14.202;2023-03-23T14:53:16;1.93;;;1.50;;
3971;SDS011;2000;47.572;14.202;2023-03-23T14:55:46;2.10;;;1.13;;
3971;SDS011;2000;47.572;14.202;2023-03-23T14:58:13;2.87;;;2.17;;
3971;SDS011;2000;47.572;14.202;2023-03-23T15:00:49;1.47;;;1.40;;
3971;SDS011;2000;47.572;14.202;2023-03-23T15:03:20;3.37;;;1.10;;
3971;SDS011;2000;47.572;14.202;2023-03-23T15:05:52;1.80;;;1.70;;
3971;SDS011;2000;47.572;14.202;2023-03-23T15:08:32;2.43;;;2.00;;
3971;SDS011;2000;47.572;14.202;2023-03-23T15:11:03;1.60;;;1.50;;
3971;SDS011;2000;47.572;14.202;2023-03-23T15:13:30;1.80;;;1.47;;
3971;SDS011;2000;47.572;14.202;2023-03-23T15:18:54;1.97;;;1.20;;
3971;SDS011;2000;47.572;14.202;2023-03-23T15:21:23;2.97;;;1.80;;
3971;SDS011;2000;47.572;14.202;2023-03-23T15:23:52;14.30;;;2.37;;
3971;SDS011;2000;47.572;14.202;2023-03-23T15:26:23;7.67;;;1.60;;
3971;SDS011;2000;47.572;14.202;2023-03-23T15:28:58;2.03;;;1.50;;
3971;SDS011;2000;47.572;14.202;2023-03-23T15:31:30;9.30;;;2.53;;
3971;SDS011;2000;47.572;14.202;2023-03-23T15:33:57;7.70;;;1.70;;
3971;SDS011;2000;47.572;14.202;2023-03-23T15:36:25;2.83;;;1.53;;
3971;SDS011;2000;47.572;14.202;2023-03-23T15:38:51;3.20;;;2.00;;
3971;SDS011;2000;47.572;14.202;2023-03-23T15:41:24;8.40;;;1.20;;
3971;SDS011;2000;47.572;14.202;2023-03-23T15:43:54;2.20;;;1.60;;
3971;SDS011;2000;47.572;14.202;2023-03-23T15:46:25;6.10;;;1.67;;
3971;SDS011;2000;47.572;14.202;2023-03-23T15:48:53;1.63;;;1.47;;
3971;SDS011;2000;47.572;14.202;2023-03-23T15:51:26;4.27;;;1.60;;
3971;SDS011;2000;47.572;14.202;2023-03-23T15:53:54;14.63;;;1.83;;
3971;SDS011;2000;47.572;14.202;2023-03-23T15:56:20;27.00;;;2.70;;
3971;SDS011;2000;47.572;14.202;2023-03-23T15:58:47;4.23;;;1.37;;
3971;SDS011;2000;47.572;14.202;2023-03-23T16:01:15;8.43;;;2.20;;
3971;SDS011;2000;47.572;14.202;2023-03-23T16:03:48;4.47;;;1.57;;
3971;SDS011;2000;47.572;14.202;2023-03-23T16:06:17;6.03;;;1.60;;
3971;SDS011;2000;47.572;14.202;2023-03-23T16:08:51;20.63;;;3.23;;
3971;SDS011;2000;47.572;14.202;2023-03-23T16:11:20;10.13;;;2.20;;
3971;SDS011;2000;47.572;14.202;2023-03-23T16:13:48;11.13;;;1.77;;
3971;SDS011;2000;47.572;14.202;2023-03-23T16:16:17;21.60;;;2.20;;
3971;SDS011;2000;47.572;14.202;2023-03-23T16:18:46;15.80;;;1.63;;
3971;SDS011;2000;47.572;14.202;2023-03-23T16:21:13;16.27;;;2.27;;
3971;SDS011;2000;47.572;14.202;2023-03-23T16:23:40;35.23;;;8.23;;
3971;SDS011;2000;47.572;14.202;2023-03-23T16:26:09;18.10;;;8.10;;
3971;SDS011;2000;47.572;14.202;2023-03-23T16:28:37;22.83;;;5.50;;
3971;SDS011;2000;47.572;14.202;2023-03-23T16:31:04;12.30;;;3.50;;
3971;SDS011;2000;47.572;14.202;2023-03-23T16:33:31;4.03;;;2.40;;
3971;SDS011;2000;47.572;14.202;2023-03-23T16:35:58;1.50;;;1.40;;
3971;SDS011;2000;47.572;14.202;2023-03-23T16:38:25;13.27;;;1.47;;
3971;SDS011;2000;47.572;14.202;2023-03-23T16:40:52;1.43;;;1.27;;
3971;SDS011;2000;47.572;14.202;2023-03-23T16:43:19;5.80;;;2.00;;
3971;SDS011;2000;47.572;14.202;2023-03-23T16:45:47;3.80;;;1.80;;
3971;SDS011;2000;47.572;14.202;2023-03-23T16:48:15;1.73;;;1.00;;
3971;SDS011;2000;47.572;14.202;2023-03-23T16:50:42;7.10;;;1.10;;
3971;SDS011;2000;47.572;14.202;2023-03-23T16:53:10;2.03;;;1.30;;
3971;SDS011;2000;47.572;14.202;2023-03-23T16:55:37;3.93;;;2.07;;
3971;SDS011;2000;47.572;14.202;2023-03-23T16:58:05;5.13;;;1.70;;
3971;SDS011;2000;47.572;14.202;2023-03-23T17:00:45;2.17;;;1.47;;
3971;SDS011;2000;47.572;14.202;2023-03-23T17:03:13;7.93;;;1.97;;
3971;SDS011;2000;47.572;14.202;2023-03-23T17:05:42;10.73;;;2.57;;